sensor_id;sensor_type;location;lat;lon;timestamp;P1;durP1;ratioP1;P2;durP2;ratioP2
80623;SDS011;70269;44.768;9.600;2023-12-07T00:00:38;0.95;;;0.60;;
80623;SDS011;70269;44.768;9.600;2023-12-07T00:03:03;0.90;;;0.70;;
80623;SDS011;70269;44.768;9.600;2023-12-07T00:05:32;1.23;;;0.68;;
80623;SDS011;70269;44.768;9.600;2023-12-07T00:07:58;0.63;;;0.43;;
80623;SDS011;70269;44.768;9.600;2023-12-07T00:10:23;0.80;;;0.40;;
80623;SDS011;70269;44.768;9.600;2023-12-07T00:12:49;0.95;;;0.38;;
80623;SDS011;70269;44.768;9.600;2023-12-07T00:15:14;0.43;;;0.32;;
80623;SDS011;70269;44.768;9.600;2023-12-07T00:17:40;2.33;;;0.40;;
80623;SDS011;70269;44.768;9.600;2023-12-07T00:20:05;0.75;;;0.38;;
80623;SDS011;70269;44.768;9.600;2023-12-07T00:22:31;0.30;;;0.17;;
80623;SDS011;70269;44.768;9.600;2023-12-07T00:24:57;1.60;;;0.65;;
80623;SDS011;70269;44.768;9.600;2023-12-07T00:27:22;0.75;;;0.40;;
80623;SDS011;70269;44.768;9.600;2023-12-07T00:29:48;0.95;;;0.40;;
80623;SDS011;70269;44.768;9.600;2023-12-07T00:32:13;1.65;;;0.50;;
80623;SDS011;70269;44.768;9.600;2023-12-07T00:34:39;0.47;;;0.28;;
80623;SDS011;70269;44.768;9.600;2023-12-07T00:37:04;1.25;;;0.25;;
80623;SDS011;70269;44.768;9.600;2023-12-07T00:39:30;0.40;;;0.22;;
80623;SDS011;70269;44.768;9.600;2023-12-07T00:41:56;0.60;;;0.28;;
80623;SDS011;70269;44.768;9.600;2023-12-07T00:44:21;0.30;;;0.10;;
80623;SDS011;70269;44.768;9.600;2023-12-07T00:46:47;0.47;;;0.10;;
80623;SDS011;70269;44.768;9.600;2023-12-07T00:49:12;0.95;;;0.52;;
80623;SDS011;70269;44.768;9.600;2023-12-07T00:51:38;0.30;;;0.20;;
80623;SDS011;70269;44.768;9.600;2023-12-07T00:54:03;0.60;;;0.43;;
80623;SDS011;70269;44.768;9.600;2023-12-07T00:56:29;0.90;;;0.30;;
80623;SDS011;70269;44.768;9.600;2023-12-07T00:58:54;1.45;;;0.60;;
80623;SDS011;70269;44.768;9.600;2023-12-07T01:01:20;0.80;;;0.63;;
80623;SDS011;70269;44.768;9.600;2023-12-07T01:03:45;0.43;;;0.17;;
80623;SDS011;70269;44.768;9.600;2023-12-07T01:06:11;0.52;;;0.40;;
80623;SDS011;70269;44.768;9.600;2023-12-07T01:08:36;0.60;;;0.43;;
80623;SDS011;70269;44.768;9.600;2023-12-07T01:11:03;0.30;;;0.20;;
80623;SDS011;70269;44.768;9.600;2023-12-07T01:13:29;1.05;;;0.40;;
80623;SDS011;70269;44.768;9.600;2023-12-07T01:15:55;0.77;;;0.20;;
80623;SDS011;70269;44.768;9.600;2023-12-07T01:18:21;0.38;;;0.30;;
80623;SDS011;70269;44.768;9.600;2023-12-07T01:20:47;0.50;;;0.32;;
80623;SDS011;70269;44.768;9.600;2023-12-07T01:23:13;0.50;;;0.15;;
80623;SDS011;70269;44.768;9.600;2023-12-07T01:25:39;2.00;;;0.70;;
80623;SDS011;70269;44.768;9.600;2023-12-07T01:28:05;0.43;;;0.40;;
80623;SDS011;70269;44.768;9.600;2023-12-07T01:30:31;0.57;;;0.30;;
80623;SDS011;70269;44.768;9.600;2023-12-07T01:32:56;0.80;;;0.30;;
80623;SDS011;70269;44.768;9.600;2023-12-07T01:35:22;0.82;;;0.30;;
80623;SDS011;70269;44.768;9.600;2023-12-07T01:37:48;0.60;;;0.25;;
80623;SDS011;70269;44.768;9.600;2023-12-07T01:40:13;1.35;;;0.88;;
80623;SDS011;70269;44.768;9.600;2023-12-07T01:42:40;0.52;;;0.43;;
80623;SDS011;70269;44.768;9.600;2023-12-07T01:45:06;0.65;;;0.20;;
80623;SDS011;70269;44.768;9.600;2023-12-07T01:47:32;0.32;;;0.22;;
80623;SDS011;70269;44.768;9.600;2023-12-07T01:50:00;0.05;;;0.03;;
80623;SDS011;70269;44.768;9.600;2023-12-07T01:52:29;0.45;;;0.30;;
80623;SDS011;70269;44.768;9.600;2023-12-07T01:54:56;0.68;;;0.50;;
80623;SDS011;70269;44.768;9.600;2023-12-07T01:57:22;0.50;;;0.20;;
80623;SDS011;70269;44.768;9.600;2023-12-07T01:59:48;0.70;;;0.30;;
80623;SDS011;70269;44.768;9.600;2023-12-07T02:02:15;0.55;;;0.40;;
80623;SDS011;70269;44.768;9.600;2023-12-07T02:04:40;0.70;;;0.28;;
80623;SDS011;70269;44.768;9.600;2023-12-07T02:07:06;2.83;;;0.43;;
80623;SDS011;70269;44.768;9.600;2023-12-07T02:09:33;1.00;;;0.45;;
80623;SDS011;70269;44.768;9.600;2023-12-07T02:11:58;0.22;;;0.17;;
80623;SDS011;70269;44.768;9.600;2023-12-07T02:14:25;0.93;;;0.38;;
80623;SDS011;70269;44.768;9.600;2023-12-07T02:16:53;0.55;;;0.30;;
80623;SDS011;70269;44.768;9.600;2023-12-07T02:22:18;0.30;;;0.10;;
80623;SDS011;70269;44.768;9.600;2023-12-07T02:24:55;0.20;;;0.10;;
80623;SDS011;70269;44.768;9.600;2023-12-07T02:27:47;0.35;;;0.25;;
80623;SDS011;70269;44.768;9.600;2023-12-07T02:30:13;0.52;;;0.20;;
80623;SDS011;70269;44.768;9.600;2023-12-07T02:32:41;0.68;;;0.20;;
80623;SDS011;70269;44.768;9.600;2023-12-07T02:35:09;0.45;;;0.30;;
80623;SDS011;70269;44.768;9.600;2023-12-07T02:37:38;1.60;;;0.90;;
80623;SDS011;70269;44.768;9.600;2023-12-07T02:40:07;0.65;;;0.35;;
80623;SDS011;70269;44.768;9.600;2023-12-07T02:42:37;0.25;;;0.20;;
80623;SDS011;70269;44.768;9.600;2023-12-07T02:47:32;0.00;;;0.00;;
80623;SDS011;70269;44.768;9.600;2023-12-07T02:49:58;0.05;;;0.05;;
80623;SDS011;70269;44.768;9.600;2023-12-07T02:52:24;0.90;;;0.40;;
80623;SDS011;70269;44.768;9.600;2023-12-07T02:54:49;1.77;;;0.20;;
80623;SDS011;70269;44.768;9.600;2023-12-07T02:57:15;0.10;;;0.10;;
80623;SDS011;70269;44.768;9.600;2023-12-07T02:59:40;0.63;;;0.40;;
80623;SDS011;70269;44.768;9.600;2023-12-07T03:02:06;0.38;;;0.32;;
80623;SDS011;70269;44.768;9.600;2023-12-07T03:04:32;2.08;;;0.68;;
80623;SDS011;70269;44.768;9.600;2023-12-07T03:06:58;0.95;;;0.43;;
80623;SDS011;70269;44.768;9.600;2023-12-07T03:09:24;0.75;;;0.38;;
80623;SDS011;70269;44.768;9.600;2023-12-07T03:11:50;1.30;;;0.45;;
80623;SDS011;70269;44.768;9.600;2023-12-07T03:14:15;0.10;;;0.10;;
80623;SDS011;70269;44.768;9.600;2023-12-07T03:16:41;0.80;;;0.40;;
80623;SDS011;70269;44.768;9.600;2023-12-07T03:19:06;0.82;;;0.40;;
80623;SDS011;70269;44.768;9.600;2023-12-07T03:21:32;0.95;;;0.50;;
80623;SDS011;70269;44.768;9.600;2023-12-07T03:23:58;0.20;;;0.17;;
80623;SDS011;70269;44.768;9.600;2023-12-07T03:26:23;0.05;;;0.05;;
80623;SDS011;70269;44.768;9.600;2023-12-07T03:28:49;0.60;;;0.30;;
80623;SDS011;70269;44.768;9.600;2023-12-07T03:31:14;0.00;;;0.00;;
80623;SDS011;70269;44.768;9.600;2023-12-07T03:33:43;0.30;;;0.30;;
80623;SDS011;70269;44.768;9.600;2023-12-07T03:36:11;0.20;;;0.20;;
80623;SDS011;70269;44.768;9.600;2023-12-07T03:38:37;0.28;;;0.20;;
80623;SDS011;70269;44.768;9.600;2023-12-07T03:41:03;0.22;;;0.20;;
80623;SDS011;70269;44.768;9.600;2023-12-07T03:43:29;0.35;;;0.22;;
80623;SDS011;70269;44.768;9.600;2023-12-07T03:45:54;0.40;;;0.05;;
80623;SDS011;70269;44.768;9.600;2023-12-07T03:48:20;0.00;;;0.00;;
80623;SDS011;70269;44.768;9.600;2023-12-07T03:50:45;0.13;;;0.10;;
80623;SDS011;70269;44.768;9.600;2023-12-07T03:53:11;0.25;;;0.22;;
80623;SDS011;70269;44.768;9.600;2023-12-07T03:55:37;0.63;;;0.20;;
80623;SDS011;70269;44.768;9.600;2023-12-07T03:58:04;0.30;;;0.10;;
80623;SDS011;70269;44.768;9.600;2023-12-07T04:00:31;0.10;;;0.10;;
80623;SDS011;70269;44.768;9.600;2023-12-07T04:02:57;0.28;;;0.10;;
80623;SDS011;70269;44.768;9.600;2023-12-07T04:05:23;0.80;;;0.15;;
80623;SDS011;70269;44.768;9.600;2023-12-07T04:07:48;0.30;;;0.30;;
80623;SDS011;70269;44.768;9.600;2023-12-07T04:10:14;0.40;;;0.25;;
80623;SDS011;70269;44.768;9.600;2023-12-07T04:12:40;0.10;;;0.10;;
80623;SDS011;70269;44.768;9.600;2023-12-07T04:15:05;0.13;;;0.13;;
80623;SDS011;70269;44.768;9.600;2023-12-07T04:17:31;1.25;;;0.50;;
80623;SDS011;70269;44.768;9.600;2023-12-07T04:19:57;2.00;;;0.40;;
80623;SDS011;70269;44.768;9.600;2023-12-07T04:22:23;0.25;;;0.13;;
80623;SDS011;70269;44.768;9.600;2023-12-07T04:24:48;0.65;;;0.20;;
80623;SDS011;70269;44.768;9.600;2023-12-07T04:27:14;0.65;;;0.30;;
80623;SDS011;70269;44.768;9.600;2023-12-07T04:29:40;0.17;;;0.10;;
80623;SDS011;70269;44.768;9.600;2023-12-07T04:32:06;1.10;;;0.50;;
80623;SDS011;70269;44.768;9.600;2023-12-07T04:34:33;1.35;;;0.57;;
80623;SDS011;70269;44.768;9.600;2023-12-07T04:36:58;0.20;;;0.10;;
80623;SDS011;70269;44.768;9.600;2023-12-07T04:39:24;0.10;;;0.10;;
80623;SDS011;70269;44.768;9.600;2023-12-07T04:41:50;0.45;;;0.17;;
80623;SDS011;70269;44.768;9.600;2023-12-07T04:44:16;0.35;;;0.15;;
80623;SDS011;70269;44.768;9.600;2023-12-07T04:46:42;0.28;;;0.25;;
80623;SDS011;70269;44.768;9.600;2023-12-07T04:49:08;0.40;;;0.20;;
80623;SDS011;70269;44.768;9.600;2023-12-07T04:51:34;1.83;;;0.40;;
80623;SDS011;70269;44.768;9.600;2023-12-07T04:53:59;0.25;;;0.20;;
80623;SDS011;70269;44.768;9.600;2023-12-07T04:56:25;0.15;;;0.13;;
80623;SDS011;70269;44.768;9.600;2023-12-07T04:58:50;0.22;;;0.10;;
80623;SDS011;70269;44.768;9.600;2023-12-07T05:01:16;0.65;;;0.30;;
80623;SDS011;70269;44.768;9.600;2023-12-07T05:03:44;0.15;;;0.15;;
80623;SDS011;70269;44.768;9.600;2023-12-07T05:06:10;0.40;;;0.20;;
80623;SDS011;70269;44.768;9.600;2023-12-07T05:08:36;0.15;;;0.15;;
80623;SDS011;70269;44.768;9.600;2023-12-07T05:11:04;0.00;;;0.00;;
80623;SDS011;70269;44.768;9.600;2023-12-07T05:13:30;0.88;;;0.40;;
80623;SDS011;70269;44.768;9.600;2023-12-07T05:15:55;0.28;;;0.20;;
80623;SDS011;70269;44.768;9.600;2023-12-07T05:18:22;0.38;;;0.20;;
80623;SDS011;70269;44.768;9.600;2023-12-07T05:20:47;0.63;;;0.20;;
80623;SDS011;70269;44.768;9.600;2023-12-07T05:23:13;0.40;;;0.28;;
80623;SDS011;70269;44.768;9.600;2023-12-07T05:25:39;0.20;;;0.20;;
80623;SDS011;70269;44.768;9.600;2023-12-07T05:28:04;0.25;;;0.20;;
80623;SDS011;70269;44.768;9.600;2023-12-07T05:30:30;0.15;;;0.13;;
80623;SDS011;70269;44.768;9.600;2023-12-07T05:32:56;0.60;;;0.25;;
80623;SDS011;70269;44.768;9.600;2023-12-07T05:35:21;0.43;;;0.22;;
80623;SDS011;70269;44.768;9.600;2023-12-07T05:37:48;0.20;;;0.20;;
80623;SDS011;70269;44.768;9.600;2023-12-07T05:40:14;0.47;;;0.43;;
80623;SDS011;70269;44.768;9.600;2023-12-07T05:42:41;0.03;;;0.03;;
80623;SDS011;70269;44.768;9.600;2023-12-07T05:45:07;0.52;;;0.10;;
80623;SDS011;70269;44.768;9.600;2023-12-07T05:47:34;0.00;;;0.00;;
80623;SDS011;70269;44.768;9.600;2023-12-07T05:50:00;0.10;;;0.10;;
80623;SDS011;70269;44.768;9.600;2023-12-07T05:52:28;3.30;;;0.20;;
80623;SDS011;70269;44.768;9.600;2023-12-07T05:54:54;0.55;;;0.32;;
80623;SDS011;70269;44.768;9.600;2023-12-07T05:57:20;1.75;;;1.00;;
80623;SDS011;70269;44.768;9.600;2023-12-07T05:59:45;0.05;;;0.05;;
80623;SDS011;70269;44.768;9.600;2023-12-07T06:02:11;0.28;;;0.22;;
80623;SDS011;70269;44.768;9.600;2023-12-07T06:04:37;0.38;;;0.20;;
80623;SDS011;70269;44.768;9.600;2023-12-07T06:07:03;0.63;;;0.22;;
80623;SDS011;70269;44.768;9.600;2023-12-07T06:09:28;0.50;;;0.20;;
80623;SDS011;70269;44.768;9.600;2023-12-07T06:11:54;1.75;;;0.35;;
80623;SDS011;70269;44.768;9.600;2023-12-07T06:14:20;1.33;;;0.32;;
80623;SDS011;70269;44.768;9.600;2023-12-07T06:16:48;0.08;;;0.08;;
80623;SDS011;70269;44.768;9.600;2023-12-07T06:19:14;0.30;;;0.30;;
80623;SDS011;70269;44.768;9.600;2023-12-07T06:21:40;0.32;;;0.30;;
80623;SDS011;70269;44.768;9.600;2023-12-07T06:24:05;0.90;;;0.35;;
80623;SDS011;70269;44.768;9.600;2023-12-07T06:26:32;0.47;;;0.28;;
80623;SDS011;70269;44.768;9.600;2023-12-07T06:28:58;1.02;;;0.22;;
80623;SDS011;70269;44.768;9.600;2023-12-07T06:31:23;0.22;;;0.20;;
80623;SDS011;70269;44.768;9.600;2023-12-07T06:33:49;5.00;;;0.80;;
80623;SDS011;70269;44.768;9.600;2023-12-07T06:36:22;1.42;;;0.60;;
80623;SDS011;70269;44.768;9.600;2023-12-07T06:38:48;0.98;;;0.40;;
80623;SDS011;70269;44.768;9.600;2023-12-07T06:41:14;0.20;;;0.10;;
80623;SDS011;70269;44.768;9.600;2023-12-07T06:43:41;0.20;;;0.20;;
80623;SDS011;70269;44.768;9.600;2023-12-07T06:46:10;1.33;;;0.63;;
80623;SDS011;70269;44.768;9.600;2023-12-07T06:48:39;0.25;;;0.10;;
80623;SDS011;70269;44.768;9.600;2023-12-07T06:51:06;0.60;;;0.28;;
80623;SDS011;70269;44.768;9.600;2023-12-07T06:53:31;0.25;;;0.20;;
80623;SDS011;70269;44.768;9.600;2023-12-07T06:55:57;0.73;;;0.43;;
80623;SDS011;70269;44.768;9.600;2023-12-07T06:58:23;0.60;;;0.35;;
80623;SDS011;70269;44.768;9.600;2023-12-07T07:00:49;0.38;;;0.20;;
80623;SDS011;70269;44.768;9.600;2023-12-07T07:03:15;0.82;;;0.40;;
80623;SDS011;70269;44.768;9.600;2023-12-07T07:05:41;1.02;;;0.40;;
80623;SDS011;70269;44.768;9.600;2023-12-07T07:08:07;1.23;;;0.43;;
80623;SDS011;70269;44.768;9.600;2023-12-07T07:10:34;0.77;;;0.32;;
80623;SDS011;70269;44.768;9.600;2023-12-07T07:13:00;0.45;;;0.30;;
80623;SDS011;70269;44.768;9.600;2023-12-07T07:15:33;0.68;;;0.35;;
80623;SDS011;70269;44.768;9.600;2023-12-07T07:17:59;0.32;;;0.28;;
80623;SDS011;70269;44.768;9.600;2023-12-07T07:20:25;0.15;;;0.13;;
80623;SDS011;70269;44.768;9.600;2023-12-07T07:22:51;0.22;;;0.22;;
80623;SDS011;70269;44.768;9.600;2023-12-07T07:25:17;0.70;;;0.35;;
80623;SDS011;70269;44.768;9.600;2023-12-07T07:27:45;0.60;;;0.30;;
80623;SDS011;70269;44.768;9.600;2023-12-07T07:30:11;0.55;;;0.30;;
80623;SDS011;70269;44.768;9.600;2023-12-07T07:32:37;1.40;;;0.50;;
80623;SDS011;70269;44.768;9.600;2023-12-07T07:35:03;1.05;;;0.57;;
80623;SDS011;70269;44.768;9.600;2023-12-07T07:37:29;1.30;;;0.50;;
80623;SDS011;70269;44.768;9.600;2023-12-07T07:39:55;1.55;;;0.75;;
80623;SDS011;70269;44.768;9.600;2023-12-07T07:42:20;1.13;;;0.35;;
80623;SDS011;70269;44.768;9.600;2023-12-07T07:44:46;1.75;;;0.50;;
80623;SDS011;70269;44.768;9.600;2023-12-07T07:47:11;0.70;;;0.30;;
80623;SDS011;70269;44.768;9.600;2023-12-07T07:49:37;0.43;;;0.20;;
80623;SDS011;70269;44.768;9.600;2023-12-07T07:52:03;0.00;;;0.00;;
80623;SDS011;70269;44.768;9.600;2023-12-07T07:54:30;1.90;;;1.27;;
80623;SDS011;70269;44.768;9.600;2023-12-07T07:56:56;0.68;;;0.60;;
80623;SDS011;70269;44.768;9.600;2023-12-07T07:59:21;0.50;;;0.22;;
80623;SDS011;70269;44.768;9.600;2023-12-07T08:01:47;1.00;;;0.68;;
80623;SDS011;70269;44.768;9.600;2023-12-07T08:04:13;0.43;;;0.30;;
80623;SDS011;70269;44.768;9.600;2023-12-07T08:06:39;0.63;;;0.40;;
80623;SDS011;70269;44.768;9.600;2023-12-07T08:09:04;0.63;;;0.25;;
80623;SDS011;70269;44.768;9.600;2023-12-07T08:11:30;0.15;;;0.05;;
80623;SDS011;70269;44.768;9.600;2023-12-07T08:13:58;0.17;;;0.13;;
80623;SDS011;70269;44.768;9.600;2023-12-07T08:16:23;2.88;;;0.52;;
80623;SDS011;70269;44.768;9.600;2023-12-07T08:18:49;1.13;;;0.30;;
80623;SDS011;70269;44.768;9.600;2023-12-07T08:21:18;0.17;;;0.13;;
80623;SDS011;70269;44.768;9.600;2023-12-07T08:23:45;4.90;;;0.57;;
80623;SDS011;70269;44.768;9.600;2023-12-07T08:26:11;1.00;;;0.30;;
80623;SDS011;70269;44.768;9.600;2023-12-07T08:28:39;0.82;;;0.50;;
80623;SDS011;70269;44.768;9.600;2023-12-07T08:31:08;1.58;;;0.60;;
80623;SDS011;70269;44.768;9.600;2023-12-07T08:33:35;1.85;;;0.80;;
80623;SDS011;70269;44.768;9.600;2023-12-07T08:36:01;2.20;;;0.73;;
80623;SDS011;70269;44.768;9.600;2023-12-07T08:38:27;3.17;;;1.30;;
80623;SDS011;70269;44.768;9.600;2023-12-07T08:40:53;2.97;;;1.33;;
80623;SDS011;70269;44.768;9.600;2023-12-07T08:43:22;4.88;;;1.58;;
80623;SDS011;70269;44.768;9.600;2023-12-07T08:45:50;2.95;;;0.75;;
80623;SDS011;70269;44.768;9.600;2023-12-07T08:48:17;1.92;;;0.73;;
80623;SDS011;70269;44.768;9.600;2023-12-07T08:50:44;6.18;;;0.88;;
80623;SDS011;70269;44.768;9.600;2023-12-07T08:53:09;1.23;;;0.50;;
80623;SDS011;70269;44.768;9.600;2023-12-07T08:55:35;1.65;;;0.65;;
80623;SDS011;70269;44.768;9.600;2023-12-07T08:58:00;2.47;;;0.55;;
80623;SDS011;70269;44.768;9.600;2023-12-07T09:00:29;7.07;;;0.98;;
80623;SDS011;70269;44.768;9.600;2023-12-07T09:02:56;3.38;;;0.60;;
80623;SDS011;70269;44.768;9.600;2023-12-07T09:05:22;3.15;;;0.77;;
80623;SDS011;70269;44.768;9.600;2023-12-07T09:07:48;3.13;;;0.55;;
80623;SDS011;70269;44.768;9.600;2023-12-07T09:10:13;1.25;;;0.40;;
80623;SDS011;70269;44.768;9.600;2023-12-07T09:12:39;2.83;;;0.60;;
80623;SDS011;70269;44.768;9.600;2023-12-07T09:15:05;0.85;;;0.40;;
80623;SDS011;70269;44.768;9.600;2023-12-07T09:17:35;2.63;;;1.10;;
80623;SDS011;70269;44.768;9.600;2023-12-07T09:20:04;1.17;;;0.60;;
80623;SDS011;70269;44.768;9.600;2023-12-07T09:22:30;1.25;;;0.40;;
80623;SDS011;70269;44.768;9.600;2023-12-07T09:24:56;1.73;;;0.45;;
80623;SDS011;70269;44.768;9.600;2023-12-07T09:27:21;3.60;;;0.82;;
80623;SDS011;70269;44.768;9.600;2023-12-07T09:29:48;1.15;;;0.63;;
80623;SDS011;70269;44.768;9.600;2023-12-07T09:32:14;4.53;;;0.65;;
80623;SDS011;70269;44.768;9.600;2023-12-07T09:34:39;3.72;;;0.77;;
80623;SDS011;70269;44.768;9.600;2023-12-07T09:37:09;1.45;;;0.52;;
80623;SDS011;70269;44.768;9.600;2023-12-07T09:39:35;5.93;;;1.33;;
80623;SDS011;70269;44.768;9.600;2023-12-07T09:42:01;3.38;;;1.15;;
80623;SDS011;70269;44.768;9.600;2023-12-07T09:44:27;1.88;;;0.55;;
80623;SDS011;70269;44.768;9.600;2023-12-07T09:46:54;5.70;;;0.80;;
80623;SDS011;70269;44.768;9.600;2023-12-07T09:49:20;3.40;;;0.57;;
80623;SDS011;70269;44.768;9.600;2023-12-07T09:51:46;2.28;;;0.75;;
80623;SDS011;70269;44.768;9.600;2023-12-07T09:54:13;1.55;;;0.60;;
80623;SDS011;70269;44.768;9.600;2023-12-07T09:56:39;2.92;;;0.82;;
80623;SDS011;70269;44.768;9.600;2023-12-07T09:59:05;1.52;;;0.50;;
80623;SDS011;70269;44.768;9.600;2023-12-07T10:01:32;1.90;;;0.70;;
80623;SDS011;70269;44.768;9.600;2023-12-07T10:06:45;1.10;;;0.70;;
80623;SDS011;70269;44.768;9.600;2023-12-07T10:09:12;2.00;;;0.60;;
80623;SDS011;70269;44.768;9.600;2023-12-07T10:11:39;0.40;;;0.30;;
80623;SDS011;70269;44.768;9.600;2023-12-07T10:14:06;0.77;;;0.60;;
80623;SDS011;70269;44.768;9.600;2023-12-07T10:16:33;0.93;;;0.40;;
80623;SDS011;70269;44.768;9.600;2023-12-07T10:21:57;2.70;;;1.00;;
80623;SDS011;70269;44.768;9.600;2023-12-07T10:24:23;3.30;;;1.60;;
80623;SDS011;70269;44.768;9.600;2023-12-07T10:29:17;2.58;;;0.85;;
80623;SDS011;70269;44.768;9.600;2023-12-07T10:31:44;2.35;;;1.17;;
80623;SDS011;70269;44.768;9.600;2023-12-07T10:34:12;2.22;;;1.10;;
80623;SDS011;70269;44.768;9.600;2023-12-07T10:36:38;3.05;;;1.20;;
80623;SDS011;70269;44.768;9.600;2023-12-07T10:39:03;3.00;;;1.55;;
80623;SDS011;70269;44.768;9.600;2023-12-07T10:41:31;0.85;;;0.35;;
80623;SDS011;70269;44.768;9.600;2023-12-07T10:43:59;0.85;;;0.40;;
80623;SDS011;70269;44.768;9.600;2023-12-07T10:46:26;1.77;;;0.65;;
80623;SDS011;70269;44.768;9.600;2023-12-07T10:49:05;2.47;;;0.70;;
80623;SDS011;70269;44.768;9.600;2023-12-07T10:51:37;2.80;;;0.77;;
80623;SDS011;70269;44.768;9.600;2023-12-07T10:54:06;1.75;;;0.60;;
80623;SDS011;70269;44.768;9.600;2023-12-07T10:56:42;1.75;;;0.68;;
80623;SDS011;70269;44.768;9.600;2023-12-07T10:59:10;1.15;;;0.50;;
80623;SDS011;70269;44.768;9.600;2023-12-07T11:01:40;3.65;;;0.88;;
80623;SDS011;70269;44.768;9.600;2023-12-07T11:04:09;1.70;;;0.77;;
80623;SDS011;70269;44.768;9.600;2023-12-07T11:06:37;4.15;;;1.27;;
80623;SDS011;70269;44.768;9.600;2023-12-07T11:09:05;2.58;;;1.40;;
80623;SDS011;70269;44.768;9.600;2023-12-07T11:12:38;2.20;;;0.82;;
80623;SDS011;70269;44.768;9.600;2023-12-07T11:14:38;4.03;;;0.82;;
80623;SDS011;70269;44.768;9.600;2023-12-07T11:17:04;1.98;;;0.93;;
80623;SDS011;70269;44.768;9.600;2023-12-07T11:22:01;1.25;;;0.57;;
80623;SDS011;70269;44.768;9.600;2023-12-07T11:24:29;0.85;;;0.50;;
80623;SDS011;70269;44.768;9.600;2023-12-07T11:26:55;1.27;;;0.60;;
80623;SDS011;70269;44.768;9.600;2023-12-07T11:29:21;1.73;;;0.60;;
80623;SDS011;70269;44.768;9.600;2023-12-07T11:31:49;0.68;;;0.43;;
80623;SDS011;70269;44.768;9.600;2023-12-07T11:37:08;2.28;;;0.85;;
80623;SDS011;70269;44.768;9.600;2023-12-07T11:39:36;2.80;;;1.10;;
80623;SDS011;70269;44.768;9.600;2023-12-07T11:42:06;3.00;;;0.90;;
80623;SDS011;70269;44.768;9.600;2023-12-07T11:44:37;4.82;;;1.30;;
80623;SDS011;70269;44.768;9.600;2023-12-07T11:47:04;3.08;;;0.82;;
80623;SDS011;70269;44.768;9.600;2023-12-07T11:49:31;1.88;;;0.80;;
80623;SDS011;70269;44.768;9.600;2023-12-07T11:52:00;2.10;;;0.85;;
80623;SDS011;70269;44.768;9.600;2023-12-07T11:54:37;3.13;;;1.13;;
80623;SDS011;70269;44.768;9.600;2023-12-07T11:57:03;2.08;;;0.93;;
80623;SDS011;70269;44.768;9.600;2023-12-07T11:59:28;2.25;;;0.80;;
80623;SDS011;70269;44.768;9.600;2023-12-07T12:01:54;1.75;;;0.70;;
80623;SDS011;70269;44.768;9.600;2023-12-07T12:04:21;2.20;;;0.85;;
80623;SDS011;70269;44.768;9.600;2023-12-07T12:06:47;1.90;;;0.90;;
80623;SDS011;70269;44.768;9.600;2023-12-07T12:09:13;3.08;;;1.05;;
80623;SDS011;70269;44.768;9.600;2023-12-07T12:11:46;2.35;;;1.17;;
80623;SDS011;70269;44.768;9.600;2023-12-07T12:14:13;3.78;;;1.25;;
80623;SDS011;70269;44.768;9.600;2023-12-07T12:16:40;5.03;;;1.85;;
80623;SDS011;70269;44.768;9.600;2023-12-07T12:19:06;3.38;;;1.20;;
80623;SDS011;70269;44.768;9.600;2023-12-07T12:21:37;4.05;;;1.65;;
80623;SDS011;70269;44.768;9.600;2023-12-07T12:24:06;3.20;;;1.30;;
80623;SDS011;70269;44.768;9.600;2023-12-07T12:26:36;3.10;;;1.60;;
80623;SDS011;70269;44.768;9.600;2023-12-07T12:29:03;3.85;;;1.52;;
80623;SDS011;70269;44.768;9.600;2023-12-07T12:31:30;4.30;;;2.03;;
80623;SDS011;70269;44.768;9.600;2023-12-07T12:33:55;4.03;;;2.13;;
80623;SDS011;70269;44.768;9.600;2023-12-07T12:36:21;3.50;;;1.73;;
80623;SDS011;70269;44.768;9.600;2023-12-07T12:38:51;2.65;;;1.30;;
80623;SDS011;70269;44.768;9.600;2023-12-07T12:41:20;4.82;;;1.92;;
80623;SDS011;70269;44.768;9.600;2023-12-07T12:43:49;3.97;;;1.77;;
80623;SDS011;70269;44.768;9.600;2023-12-07T12:46:16;4.68;;;1.90;;
80623;SDS011;70269;44.768;9.600;2023-12-07T12:48:58;4.88;;;2.33;;
80623;SDS011;70269;44.768;9.600;2023-12-07T12:51:25;2.47;;;1.27;;
80623;SDS011;70269;44.768;9.600;2023-12-07T12:53:53;4.20;;;1.70;;
80623;SDS011;70269;44.768;9.600;2023-12-07T12:56:20;4.93;;;1.50;;
80623;SDS011;70269;44.768;9.600;2023-12-07T12:58:49;4.93;;;2.15;;
80623;SDS011;70269;44.768;9.600;2023-12-07T13:01:16;4.22;;;1.77;;
80623;SDS011;70269;44.768;9.600;2023-12-07T13:03:43;2.97;;;1.40;;
80623;SDS011;70269;44.768;9.600;2023-12-07T13:06:11;2.80;;;1.42;;
80623;SDS011;70269;44.768;9.600;2023-12-07T13:08:37;4.95;;;1.98;;
80623;SDS011;70269;44.768;9.600;2023-12-07T13:11:03;4.63;;;1.90;;
80623;SDS011;70269;44.768;9.600;2023-12-07T13:13:29;4.30;;;2.08;;
80623;SDS011;70269;44.768;9.600;2023-12-07T13:15:55;5.15;;;1.88;;
80623;SDS011;70269;44.768;9.600;2023-12-07T13:18:20;3.72;;;1.50;;
80623;SDS011;70269;44.768;9.600;2023-12-07T13:20:46;3.88;;;1.80;;
80623;SDS011;70269;44.768;9.600;2023-12-07T13:23:11;4.22;;;1.45;;
80623;SDS011;70269;44.768;9.600;2023-12-07T13:25:37;3.70;;;1.60;;
80623;SDS011;70269;44.768;9.600;2023-12-07T13:28:02;4.13;;;2.05;;
80623;SDS011;70269;44.768;9.600;2023-12-07T13:30:28;5.45;;;2.67;;
80623;SDS011;70269;44.768;9.600;2023-12-07T13:32:55;4.72;;;1.85;;
80623;SDS011;70269;44.768;9.600;2023-12-07T13:35:20;4.78;;;1.98;;
80623;SDS011;70269;44.768;9.600;2023-12-07T13:37:47;7.97;;;2.10;;
80623;SDS011;70269;44.768;9.600;2023-12-07T13:40:13;5.47;;;2.25;;
80623;SDS011;70269;44.768;9.600;2023-12-07T13:42:40;9.23;;;4.07;;
80623;SDS011;70269;44.768;9.600;2023-12-07T13:45:06;7.18;;;3.20;;
80623;SDS011;70269;44.768;9.600;2023-12-07T13:47:33;6.50;;;2.75;;
80623;SDS011;70269;44.768;9.600;2023-12-07T13:50:02;6.28;;;3.33;;
80623;SDS011;70269;44.768;9.600;2023-12-07T13:52:29;5.43;;;2.70;;
80623;SDS011;70269;44.768;9.600;2023-12-07T13:54:55;5.93;;;2.70;;
80623;SDS011;70269;44.768;9.600;2023-12-07T13:57:21;7.82;;;3.88;;
80623;SDS011;70269;44.768;9.600;2023-12-07T13:59:51;6.25;;;2.40;;
80623;SDS011;70269;44.768;9.600;2023-12-07T14:02:17;3.85;;;1.80;;
80623;SDS011;70269;44.768;9.600;2023-12-07T14:04:48;4.45;;;1.83;;
80623;SDS011;70269;44.768;9.600;2023-12-07T14:07:15;4.80;;;2.45;;
80623;SDS011;70269;44.768;9.600;2023-12-07T14:09:43;4.60;;;1.60;;
80623;SDS011;70269;44.768;9.600;2023-12-07T14:12:10;3.90;;;1.60;;
80623;SDS011;70269;44.768;9.600;2023-12-07T14:14:45;4.75;;;1.65;;
80623;SDS011;70269;44.768;9.600;2023-12-07T14:17:12;4.05;;;1.58;;
80623;SDS011;70269;44.768;9.600;2023-12-07T14:19:38;3.97;;;1.50;;
80623;SDS011;70269;44.768;9.600;2023-12-07T14:22:04;3.42;;;1.52;;
80623;SDS011;70269;44.768;9.600;2023-12-07T14:24:30;6.68;;;2.10;;
80623;SDS011;70269;44.768;9.600;2023-12-07T14:26:57;2.35;;;0.98;;
80623;SDS011;70269;44.768;9.600;2023-12-07T14:29:22;4.50;;;1.95;;
80623;SDS011;70269;44.768;9.600;2023-12-07T14:31:50;3.67;;;1.52;;
80623;SDS011;70269;44.768;9.600;2023-12-07T14:34:16;3.65;;;1.38;;
80623;SDS011;70269;44.768;9.600;2023-12-07T14:36:43;5.05;;;1.77;;
80623;SDS011;70269;44.768;9.600;2023-12-07T14:39:12;2.00;;;1.13;;
80623;SDS011;70269;44.768;9.600;2023-12-07T14:41:45;2.80;;;1.30;;
80623;SDS011;70269;44.768;9.600;2023-12-07T14:44:14;3.20;;;1.63;;
80623;SDS011;70269;44.768;9.600;2023-12-07T14:46:41;2.65;;;1.25;;
80623;SDS011;70269;44.768;9.600;2023-12-07T14:51:36;6.75;;;1.50;;
80623;SDS011;70269;44.768;9.600;2023-12-07T14:54:02;6.68;;;2.03;;
80623;SDS011;70269;44.768;9.600;2023-12-07T14:56:28;2.53;;;0.95;;
80623;SDS011;70269;44.768;9.600;2023-12-07T14:58:53;2.83;;;1.25;;
80623;SDS011;70269;44.768;9.600;2023-12-07T15:01:19;5.00;;;2.00;;
80623;SDS011;70269;44.768;9.600;2023-12-07T15:03:44;2.58;;;1.05;;
80623;SDS011;70269;44.768;9.600;2023-12-07T15:06:10;5.18;;;2.08;;